createdAt,value
2022-08-26T00:04:19.714Z,99.90
2022-08-26T00:09:24.796Z,99.90
2022-08-26T00:14:31.251Z,99.90
2022-08-26T00:19:34.500Z,99.90
2022-08-26T00:24:39.093Z,99.90
2022-08-26T00:29:42.136Z,99.90
2022-08-26T00:34:44.889Z,99.90
2022-08-26T00:39:49.008Z,99.90
2022-08-26T00:44:52.120Z,99.90
2022-08-26T00:49:56.253Z,99.90
2022-08-26T00:55:04.429Z,99.90
2022-08-26T01:00:11.504Z,99.90
2022-08-26T01:05:14.734Z,99.90
2022-08-26T01:10:21.896Z,99.90
2022-08-26T01:15:29.038Z,99.90
2022-08-26T01:20:42.057Z,99.90
2022-08-26T01:25:49.439Z,99.90
2022-08-26T01:30:55.992Z,99.90
2022-08-26T01:35:59.186Z,99.90
2022-08-26T01:41:16.340Z,99.90
2022-08-26T01:46:24.870Z,99.90
2022-08-26T01:51:28.784Z,99.90
2022-08-26T01:56:36.451Z,99.90
2022-08-26T02:01:39.627Z,99.90
2022-08-26T02:06:43.001Z,99.90
2022-08-26T02:11:47.517Z,99.90
2022-08-26T02:16:54.288Z,99.90
2022-08-26T02:21:58.989Z,99.90
2022-08-26T02:27:03.375Z,99.90
2022-08-26T02:32:09.732Z,99.90
2022-08-26T02:37:13.331Z,99.90
2022-08-26T02:42:17.337Z,99.90
2022-08-26T02:47:20.117Z,99.90
2022-08-26T02:52:27.683Z,99.90
2022-08-26T02:57:32.360Z,99.90
2022-08-26T03:02:35.089Z,99.90
2022-08-26T03:07:37.988Z,99.90
2022-08-26T03:12:41.987Z,99.90
2022-08-26T03:17:45.436Z,99.90
2022-08-26T03:22:51.336Z,99.90
2022-08-26T03:27:55.373Z,99.90
2022-08-26T03:32:58.090Z,99.90
2022-08-26T03:38:01.909Z,99.90
2022-08-26T03:43:09.594Z,99.90
2022-08-26T03:48:12.855Z,99.90
2022-08-26T03:53:15.543Z,99.90
2022-08-26T03:58:20.440Z,99.90
2022-08-26T04:03:37.113Z,99.90
2022-08-26T04:08:40.228Z,99.90
2022-08-26T04:13:44.223Z,99.90
2022-08-26T04:18:47.090Z,99.90
2022-08-26T04:23:50.079Z,99.90
2022-08-26T04:28:55.503Z,99.90
2022-08-26T04:33:58.295Z,99.90
2022-08-26T04:39:02.731Z,99.90
2022-08-26T04:44:07.662Z,99.90
2022-08-26T04:49:10.452Z,99.90
2022-08-26T04:54:14.082Z,99.90
2022-08-26T04:59:20.353Z,99.90
2022-08-26T05:04:24.489Z,99.90
2022-08-26T05:09:28.060Z,99.90
2022-08-26T05:14:32.086Z,99.90
2022-08-26T05:19:37.057Z,99.90
2022-08-26T05:24:41.350Z,99.90
2022-08-26T05:29:45.402Z,99.90
2022-08-26T05:34:51.429Z,99.90
2022-08-26T05:39:56.064Z,99.90
2022-08-26T05:45:00.092Z,99.90
2022-08-26T05:50:05.474Z,99.90
2022-08-26T05:55:08.795Z,99.90
2022-08-26T06:00:16.130Z,99.90
2022-08-26T06:05:19.555Z,99.90
2022-08-26T06:10:32.948Z,99.90
2022-08-26T06:15:42.035Z,99.90
2022-08-26T06:20:57.285Z,99.90
2022-08-26T06:26:01.424Z,99.90
2022-08-26T06:31:06.913Z,99.90
2022-08-26T06:36:15.692Z,99.90
2022-08-26T06:41:21.021Z,99.90
2022-08-26T06:46:26.045Z,99.90
2022-08-26T06:51:31.423Z,99.90
2022-08-26T06:57:05.732Z,99.90
2022-08-26T07:02:54.985Z,99.90
2022-08-26T07:08:17.698Z,99.90
2022-08-26T07:13:59.964Z,99.90
2022-08-26T07:19:29.093Z,1.00
2022-08-26T07:25:23.212Z,1.00
2022-08-26T07:38:21.369Z,1.00
2022-08-26T07:50:49.100Z,1.00
2022-08-26T07:56:39.319Z,1.00
2022-08-26T08:02:37.727Z,99.90
2022-08-26T08:07:53.544Z,1.00
2022-08-26T08:13:32.609Z,1.00
2022-08-26T08:18:42.222Z,91.00
2022-08-26T08:24:06.935Z,1.00
2022-08-26T08:29:53.370Z,86.00
2022-08-26T08:35:34.058Z,1.00
2022-08-26T08:40:52.081Z,1.00
2022-08-26T08:46:20.065Z,1.00
2022-08-26T08:51:47.625Z,1.00
2022-08-26T08:57:26.609Z,1.00
2022-08-26T09:03:07.086Z,99.90
2022-08-26T09:08:38.157Z,99.90
2022-08-26T09:14:14.204Z,99.90
2022-08-26T09:19:25.845Z,99.90
2022-08-26T09:24:57.712Z,99.90
2022-08-26T09:30:02.283Z,99.90
2022-08-26T09:35:23.851Z,87.10
2022-08-26T09:40:59.160Z,1.00
2022-08-26T10:15:50.665Z,1.00
2022-08-26T11:18:30.361Z,1.00
2022-08-26T11:29:59.113Z,1.00
2022-08-26T11:35:06.713Z,1.00
2022-08-26T11:40:12.807Z,1.00
2022-08-26T11:45:20.501Z,1.00
2022-08-26T11:50:27.422Z,99.90
2022-08-26T11:55:30.980Z,99.90
2022-08-26T12:00:49.488Z,99.90
2022-08-26T12:05:55.123Z,99.90
2022-08-26T12:11:08.572Z,99.90
2022-08-26T12:16:12.521Z,99.90
2022-08-26T12:21:22.300Z,99.90
2022-08-26T12:26:29.130Z,99.90
2022-08-26T12:31:34.327Z,99.90
2022-08-26T12:36:43.555Z,99.90
2022-08-26T12:41:50.954Z,99.90
2022-08-26T12:46:54.100Z,99.90
2022-08-26T12:51:58.213Z,99.90
2022-08-26T12:57:10.763Z,99.90
2022-08-26T13:02:37.739Z,99.90
2022-08-26T13:07:41.845Z,99.90
2022-08-26T13:12:44.523Z,99.90
2022-08-26T13:17:47.243Z,99.90
2022-08-26T13:22:51.945Z,99.90
2022-08-26T13:28:01.938Z,99.90
2022-08-26T13:33:04.729Z,99.90
2022-08-26T13:38:14.751Z,99.90
2022-08-26T13:43:35.704Z,99.90
2022-08-26T13:48:38.707Z,99.90
2022-08-26T13:53:45.187Z,99.90
2022-08-26T13:58:48.323Z,99.90
2022-08-26T14:03:52.604Z,99.90
2022-08-26T14:08:56.663Z,99.90
2022-08-26T14:13:59.378Z,1.00
2022-08-26T14:19:03.580Z,1.00
2022-08-26T14:24:08.002Z,1.00
2022-08-26T14:29:14.641Z,1.00
2022-08-26T14:34:19.376Z,1.00
2022-08-26T14:39:23.396Z,1.00
2022-08-26T14:44:30.500Z,99.90
2022-08-26T14:49:33.307Z,99.90
2022-08-26T14:54:37.753Z,99.90
2022-08-26T14:59:42.982Z,99.90
2022-08-26T15:04:48.216Z,99.90
2022-08-26T15:09:52.239Z,99.90
2022-08-26T15:14:54.896Z,99.90
2022-08-26T15:19:57.628Z,99.90
2022-08-26T15:25:02.048Z,99.90
2022-08-26T15:30:05.871Z,99.90
2022-08-26T15:35:09.584Z,99.90
2022-08-26T15:40:13.807Z,99.90
2022-08-26T15:45:24.970Z,99.90
2022-08-26T15:50:29.127Z,99.90
2022-08-26T15:55:33.128Z,99.90
2022-08-26T16:00:37.721Z,99.90
2022-08-26T16:05:41.586Z,1.00
2022-08-26T16:10:50.365Z,1.00
2022-08-26T16:15:53.651Z,1.00
2022-08-26T16:21:13.140Z,99.90
2022-08-26T16:26:20.536Z,1.00
2022-08-26T16:31:23.351Z,1.00
2022-08-26T16:36:26.207Z,1.00
2022-08-26T16:41:31.850Z,99.90
2022-08-26T16:46:35.607Z,1.00
2022-08-26T16:51:38.661Z,99.90
2022-08-26T16:56:42.688Z,1.00
2022-08-26T17:01:45.495Z,99.90
2022-08-26T17:06:48.305Z,1.00
2022-08-26T17:11:52.603Z,1.00
2022-08-26T17:16:55.339Z,1.00
2022-08-26T17:21:58.010Z,1.00
2022-08-26T17:27:02.126Z,99.90
2022-08-26T18:15:11.385Z,99.90
2022-08-26T18:20:19.135Z,99.90
2022-08-26T18:25:22.013Z,1.00
2022-08-26T18:30:25.300Z,1.00
2022-08-26T18:35:30.335Z,1.00
2022-08-26T18:40:33.064Z,1.00
2022-08-26T18:45:36.340Z,1.00
2022-08-26T18:50:43.817Z,1.00
2022-08-26T18:55:48.801Z,1.00
2022-08-26T19:06:14.427Z,1.00
2022-08-26T19:11:17.255Z,1.00
2022-08-26T19:16:34.929Z,1.00
2022-08-26T19:21:39.815Z,1.00
2022-08-26T19:26:43.003Z,1.00
2022-08-26T19:31:47.885Z,1.00
2022-08-26T19:36:56.206Z,1.00
2022-08-26T19:42:00.388Z,1.00
2022-08-26T19:47:20.687Z,1.00
2022-08-26T19:52:29.914Z,1.00
2022-08-26T19:57:37.663Z,1.00
2022-08-26T20:02:41.649Z,1.00
2022-08-26T20:07:47.470Z,1.00
2022-08-26T20:12:52.315Z,1.00
2022-08-26T20:17:56.096Z,1.00
2022-08-26T20:23:01.029Z,1.00
2022-08-26T20:28:04.522Z,1.00
2022-08-26T20:33:07.609Z,1.00
2022-08-26T20:38:12.185Z,1.00
2022-08-26T20:43:15.233Z,1.00
2022-08-26T20:48:17.944Z,1.00
2022-08-26T20:53:21.942Z,26.50
2022-08-26T20:58:26.971Z,47.00
2022-08-26T21:03:30.793Z,16.10
2022-08-26T21:08:37.798Z,27.10
2022-08-26T21:14:03.900Z,45.90
2022-08-26T21:19:07.949Z,27.20
2022-08-26T21:24:13.044Z,23.80
2022-08-26T21:29:16.611Z,36.90
2022-08-26T21:34:20.362Z,55.90
2022-08-26T21:39:25.032Z,97.90
2022-08-26T21:44:28.325Z,99.90
2022-08-26T21:49:34.006Z,99.90
2022-08-26T21:54:38.423Z,99.90
2022-08-26T21:59:42.933Z,99.90
2022-08-26T22:04:48.856Z,99.90
2022-08-26T22:09:53.230Z,99.90
2022-08-26T22:14:55.965Z,99.90
2022-08-26T22:19:58.628Z,99.90
2022-08-26T22:25:04.784Z,99.90
2022-08-26T22:30:08.284Z,99.90
2022-08-26T22:35:29.337Z,99.90
2022-08-26T22:40:35.416Z,99.90
2022-08-26T22:45:41.699Z,99.90
2022-08-26T22:50:45.157Z,99.90
2022-08-26T22:55:50.595Z,99.90
2022-08-26T23:00:53.453Z,99.90
2022-08-26T23:05:58.750Z,99.90
2022-08-26T23:11:04.318Z,99.90
2022-08-26T23:16:10.145Z,99.90
2022-08-26T23:21:13.003Z,99.90
2022-08-26T23:26:17.860Z,99.90
2022-08-26T23:31:20.655Z,99.90
2022-08-26T23:36:23.398Z,99.90
2022-08-26T23:41:28.335Z,99.90
2022-08-26T23:46:31.288Z,99.90
2022-08-26T23:51:51.801Z,99.90
2022-08-26T23:56:55.904Z,99.90
